Time;durP1;ratioP1;P1;durP2;ratioP2;P2;SDS_P1;SDS_P2;PMS_P1;PMS_P2;Temp;Humidity;BMP_temperature;BMP_pressure;BME280_temperature;BME280_humidity;BME280_pressure;Samples;Min_cycle;Max_cycle;Signal;HPM_P1;HPM_P2
2023/09/26 00:01:26;;;;;;;;;;;;;;;33.46;32.67;99107.13;5020637;28;19917;-94
2023/09/26 00:03:52;;;;;;;;;;;;;;;33.80;31.92;99101.91;5028027;28;19956;-95
2023/09/26 00:06:22;;;;;;;;;;;;;;;34.11;31.72;99104.56;5014704;28;19917;-94
2023/09/26 00:08:49;;;;;;;;;;;;;;;33.80;32.27;99103.97;5013141;28;20396;-94
2023/09/26 00:11:15;;;;;;;;;;;;;;;33.33;32.72;99108.06;5013930;28;20419;-94
2023/09/26 00:13:43;;;;;;;;;;;;;;;33.51;32.66;99097.94;5013866;28;20341;-94
2023/09/26 00:16:10;;;;;;;;;;;;;;;33.07;33.17;99103.91;5011538;28;19925;-93
2023/09/26 00:18:37;;;;;;;;;;;;;;;33.15;33.03;99108.03;5014412;28;19925;-94
2023/09/26 00:21:03;;;;;;;;;;;;;;;33.52;32.61;99097.47;5006236;28;20013;-92
2023/09/26 00:23:29;;;;;;;;;;;;;;;33.55;32.51;99102.25;5013214;28;19932;-94
2023/09/26 00:25:55;;;;;;;;;;;;;;;33.48;32.56;99098.88;5012719;28;20016;-94
2023/09/26 00:28:21;;;;;;;;;;;;;;;33.44;32.60;99091.28;4997945;28;19972;-93
2023/09/26 00:30:47;;;;;;;;;;;;;;;33.31;32.83;99099.19;5003687;28;19921;-93
2023/09/26 00:33:13;;;;;;;;;;;;;;;32.57;33.90;99093.00;5009502;28;20297;-94
2023/09/26 00:35:40;;;;;;;;;;;;;;;32.45;34.04;99096.72;5014452;28;19932;-93
2023/09/26 00:38:06;;;;;;;;;;;;;;;32.84;33.72;99095.16;5013990;28;19918;-93
2023/09/26 00:40:32;;;;;;;;;;;;;;;32.98;33.36;99095.31;5013648;28;19971;-93
2023/09/26 00:42:58;;;;;;;;;;;;;;;32.66;33.73;99093.03;5013811;28;19975;-92
2023/09/26 00:45:25;;;;;;;;;;;;;;;32.51;34.34;99094.88;5014315;28;19921;-93
2023/09/26 00:47:52;;;;;;;;;;;;;;;32.51;34.06;99092.81;5013101;28;19925;-92
2023/09/26 00:50:20;;;;;;;;;;;;;;;32.81;33.39;99085.50;5005160;28;19921;-92
2023/09/26 00:52:47;;;;;;;;;;;;;;;32.68;33.99;99090.50;5013182;28;19964;-93
2023/09/26 00:55:14;;;;;;;;;;;;;;;32.96;33.47;99088.53;5010773;28;19932;-93
2023/09/26 00:57:40;;;;;;;;;;;;;;;33.11;32.78;99098.06;5000674;28;19922;-93
2023/09/26 01:00:08;;;;;;;;;;;;;;;33.30;32.64;99091.16;5000741;28;20348;-93
2023/09/26 01:02:34;;;;;;;;;;;;;;;32.97;33.00;99096.59;5001779;28;19930;-94
2023/09/26 01:05:00;;;;;;;;;;;;;;;33.01;33.16;99094.41;5004071;28;19988;-93
2023/09/26 01:07:26;;;;;;;;;;;;;;;32.93;33.26;99093.09;5012886;28;20344;-94
2023/09/26 01:09:52;;;;;;;;;;;;;;;31.60;35.71;99094.25;5011218;28;19922;-92
2023/09/26 01:12:19;;;;;;;;;;;;;;;32.09;34.98;99097.34;5011854;28;20016;-94
2023/09/26 01:14:46;;;;;;;;;;;;;;;32.57;33.76;99087.31;5011903;28;20377;-93
2023/09/26 01:17:12;;;;;;;;;;;;;;;32.78;33.46;99086.44;5011217;28;20354;-93
2023/09/26 01:19:38;;;;;;;;;;;;;;;32.70;33.66;99094.47;5012852;28;20000;-93
2023/09/26 01:22:04;;;;;;;;;;;;;;;33.11;32.79;99089.53;5009827;28;19965;-93
2023/09/26 01:24:31;;;;;;;;;;;;;;;33.32;32.60;99086.56;4999092;28;19929;-91
2023/09/26 01:26:57;;;;;;;;;;;;;;;32.52;33.93;99076.53;5012777;28;19921;-94
2023/09/26 01:29:23;;;;;;;;;;;;;;;32.78;33.71;99079.94;5010509;28;20324;-93
2023/09/26 01:31:49;;;;;;;;;;;;;;;32.46;34.20;99082.03;5012563;28;19922;-93
2023/09/26 01:34:15;;;;;;;;;;;;;;;32.26;34.24;99084.47;5007364;28;19964;-93
2023/09/26 01:36:41;;;;;;;;;;;;;;;32.26;34.47;99080.81;5004949;28;19921;-94
2023/09/26 01:39:07;;;;;;;;;;;;;;;31.93;34.94;99078.41;5015181;28;20328;-94
2023/09/26 01:41:33;;;;;;;;;;;;;;;31.82;35.10;99078.03;5006186;28;19926;-95
2023/09/26 01:43:59;;;;;;;;;;;;;;;32.17;34.68;99080.78;5017869;28;19917;-93
2023/09/26 01:46:25;;;;;;;;;;;;;;;32.78;33.33;99065.72;5007584;28;19917;-94
2023/09/26 01:48:51;;;;;;;;;;;;;;;33.18;32.86;99069.31;5016914;28;20369;-93
2023/09/26 01:51:17;;;;;;;;;;;;;;;33.38;32.34;99076.13;5015485;28;19960;-93
2023/09/26 01:53:43;;;;;;;;;;;;;;;33.31;32.35;99069.94;5002177;28;19971;-93
2023/09/26 01:56:09;;;;;;;;;;;;;;;33.45;32.14;99066.44;5005319;28;20017;-93
2023/09/26 01:58:35;;;;;;;;;;;;;;;33.29;32.37;99063.94;5003477;28;19937;-93
2023/09/26 02:01:01;;;;;;;;;;;;;;;33.59;31.79;99054.44;5017030;28;19930;-92
2023/09/26 02:03:28;;;;;;;;;;;;;;;33.98;31.16;99059.13;5013831;28;19917;-92
2023/09/26 02:05:56;;;;;;;;;;;;;;;34.22;30.83;99059.25;5011719;28;20361;-93
2023/09/26 02:08:22;;;;;;;;;;;;;;;34.18;31.16;99061.47;5016589;28;19968;-93
2023/09/26 02:10:48;;;;;;;;;;;;;;;34.00;31.23;99061.50;5016292;28;19940;-93
2023/09/26 02:13:14;;;;;;;;;;;;;;;33.60;31.75;99055.25;5016785;28;20293;-94
2023/09/26 02:15:40;;;;;;;;;;;;;;;33.09;32.58;99050.19;5016642;28;19944;-93
2023/09/26 02:18:06;;;;;;;;;;;;;;;33.36;31.73;99052.22;5017551;28;19932;-93
2023/09/26 02:20:32;;;;;;;;;;;;;;;33.37;31.64;99050.97;5016287;28;19918;-93
2023/09/26 02:22:58;;;;;;;;;;;;;;;33.36;31.70;99052.22;5016228;28;19980;-94
2023/09/26 02:25:25;;;;;;;;;;;;;;;33.58;31.17;99043.53;5014829;28;20451;-94
2023/09/26 02:27:51;;;;;;;;;;;;;;;33.68;30.68;99050.81;5016423;28;19917;-94
2023/09/26 02:30:18;;;;;;;;;;;;;;;33.63;31.05;99049.38;5002230;28;19918;-94
2023/09/26 02:32:45;;;;;;;;;;;;;;;33.79;30.36;99039.72;5012477;28;19922;-95
2023/09/26 02:35:12;;;;;;;;;;;;;;;33.91;30.05;99042.34;5016485;28;19921;-94
2023/09/26 02:37:38;;;;;;;;;;;;;;;34.07;29.66;99046.94;5015580;28;19951;-94
2023/09/26 02:40:09;;;;;;;;;;;;;;;34.20;29.04;99049.59;5016163;28;20312;-94
2023/09/26 02:42:36;;;;;;;;;;;;;;;34.14;29.34;99051.50;5012856;28;19987;-94
2023/09/26 02:45:02;;;;;;;;;;;;;;;34.16;29.30;99048.97;5002069;28;19917;-94
2023/09/26 02:47:28;;;;;;;;;;;;;;;34.18;28.98;99044.38;5015404;28;19937;-94
2023/09/26 02:49:54;;;;;;;;;;;;;;;34.11;29.35;99043.91;5015784;28;20388;-95
2023/09/26 02:52:21;;;;;;;;;;;;;;;33.88;29.15;99048.22;5030584;28;19949;-94
2023/09/26 02:54:47;;;;;;;;;;;;;;;33.68;29.42;99048.75;5019786;28;19928;-94
2023/09/26 02:57:14;;;;;;;;;;;;;;;33.74;29.23;99049.69;5005137;28;20009;-94
2023/09/26 02:59:40;;;;;;;;;;;;;;;33.78;29.47;99050.31;5004702;28;19921;-94
2023/09/26 03:02:08;;;;;;;;;;;;;;;33.88;29.09;99048.22;5015345;28;19925;-94
2023/09/26 03:04:34;;;;;;;;;;;;;;;33.89;28.69;99038.41;5015445;28;19917;-93
2023/09/26 03:07:00;;;;;;;;;;;;;;;33.65;28.75;99046.06;5015774;28;19928;-94
2023/09/26 03:09:26;;;;;;;;;;;;;;;33.46;29.30;99044.47;5016015;28;20337;-95
2023/09/26 03:11:52;;;;;;;;;;;;;;;33.10;29.78;99046.03;5015927;28;19940;-94
2023/09/26 03:14:19;;;;;;;;;;;;;;;33.04;29.52;99038.63;5015485;28;20431;-94
2023/09/26 03:16:45;;;;;;;;;;;;;;;33.11;29.78;99039.09;5008956;28;19956;-94
2023/09/26 03:19:12;;;;;;;;;;;;;;;33.10;29.30;99028.97;5014526;28;19917;-94
2023/09/26 03:21:38;;;;;;;;;;;;;;;32.99;29.69;99034.31;5015056;28;19917;-94
2023/09/26 03:24:04;;;;;;;;;;;;;;;32.82;29.99;99032.22;5015443;28;19922;-94
2023/09/26 03:26:30;;;;;;;;;;;;;;;32.82;30.46;99029.38;5015991;28;20289;-94
2023/09/26 03:28:56;;;;;;;;;;;;;;;32.80;29.89;99029.84;5001041;28;20405;-95
2023/09/26 03:31:22;;;;;;;;;;;;;;;32.77;29.57;99033.63;5013416;28;19960;-96
2023/09/26 03:33:49;;;;;;;;;;;;;;;32.87;29.19;99029.56;5015407;28;20008;-95
2023/09/26 03:36:15;;;;;;;;;;;;;;;32.91;29.83;99030.19;5015223;28;19917;-95
2023/09/26 03:38:41;;;;;;;;;;;;;;;32.78;30.14;99029.53;5015192;28;19917;-95
2023/09/26 03:41:08;;;;;;;;;;;;;;;32.58;30.35;99038.50;5014924;28;19922;-94
2023/09/26 03:43:34;;;;;;;;;;;;;;;32.74;29.92;99038.22;5014782;28;19921;-94
2023/09/26 03:46:02;;;;;;;;;;;;;;;32.97;29.77;99036.84;5014301;28;19979;-95
2023/09/26 03:48:29;;;;;;;;;;;;;;;33.02;30.09;99036.25;5014767;28;20409;-95
2023/09/26 03:50:55;;;;;;;;;;;;;;;32.95;29.99;99024.34;5014481;28;19965;-96
2023/09/26 03:53:21;;;;;;;;;;;;;;;33.00;29.82;99027.34;5010963;28;19921;-95
2023/09/26 03:55:54;;;;;;;;;;;;;;;33.12;29.63;99031.34;5014909;28;19918;-95
2023/09/26 03:58:21;;;;;;;;;;;;;;;32.94;29.66;99032.09;5014706;28;19932;-94
2023/09/26 04:00:47;;;;;;;;;;;;;;;32.36;29.97;99026.41;5013875;28;19991;-95
2023/09/26 04:03:13;;;;;;;;;;;;;;;32.43;30.39;99026.09;5014710;28;19918;-96
2023/09/26 04:05:40;;;;;;;;;;;;;;;32.65;30.13;99035.34;5014602;28;19918;-95
2023/09/26 04:08:06;;;;;;;;;;;;;;;32.56;30.00;99037.38;5006529;28;19968;-95
2023/09/26 04:10:36;;;;;;;;;;;;;;;32.62;29.68;99029.81;5004811;28;20348;-94
2023/09/26 04:13:02;;;;;;;;;;;;;;;32.55;29.94;99033.75;5008997;28;19936;-94
2023/09/26 04:15:28;;;;;;;;;;;;;;;32.59;29.30;99030.75;5012069;28;19931;-95
2023/09/26 04:17:54;;;;;;;;;;;;;;;32.48;30.01;99036.88;5007966;28;19926;-95
2023/09/26 04:20:20;;;;;;;;;;;;;;;32.54;29.66;99040.69;5002510;28;19925;-95
2023/09/26 04:22:47;;;;;;;;;;;;;;;32.62;29.29;99039.16;5000519;28;20016;-93
2023/09/26 04:25:13;;;;;;;;;;;;;;;32.78;29.31;99043.75;5007010;28;20396;-94
2023/09/26 04:27:39;;;;;;;;;;;;;;;32.89;29.25;99044.09;5001791;28;20393;-92
2023/09/26 04:30:07;;;;;;;;;;;;;;;32.97;28.89;99047.44;5010154;28;19964;-96
2023/09/26 04:32:33;;;;;;;;;;;;;;;32.97;28.50;99042.53;5014048;28;19925;-92
2023/09/26 04:34:59;;;;;;;;;;;;;;;32.66;29.12;99056.06;5011828;28;20301;-95
2023/09/26 04:37:25;;;;;;;;;;;;;;;32.70;28.93;99060.34;5008778;28;19929;-96
2023/09/26 04:39:51;;;;;;;;;;;;;;;32.82;28.83;99060.66;5000696;28;19929;-95
2023/09/26 04:42:17;;;;;;;;;;;;;;;32.89;28.86;99061.16;5011463;28;19921;-96
2023/09/26 04:44:43;;;;;;;;;;;;;;;32.93;28.58;99069.56;5015367;28;19921;-94
2023/09/26 04:47:09;;;;;;;;;;;;;;;32.81;28.65;99062.75;5009404;28;19925;-94
2023/09/26 04:49:35;;;;;;;;;;;;;;;32.84;28.40;99063.84;5009748;28;20377;-95
2023/09/26 04:52:04;;;;;;;;;;;;;;;32.96;28.43;99071.44;5011407;28;19922;-94
2023/09/26 04:54:30;;;;;;;;;;;;;;;33.03;28.11;99062.63;5004129;28;20274;-94
2023/09/26 04:56:56;;;;;;;;;;;;;;;33.07;27.97;99066.13;5015203;28;19929;-96
2023/09/26 04:59:22;;;;;;;;;;;;;;;33.08;27.92;99065.66;5020865;28;19924;-95
2023/09/26 05:01:49;;;;;;;;;;;;;;;33.06;28.26;99070.22;5016137;28;19980;-96
2023/09/26 05:04:15;;;;;;;;;;;;;;;33.13;28.21;99064.22;5028952;28;19917;-93
2023/09/26 05:06:41;;;;;;;;;;;;;;;33.22;27.80;99070.72;5018935;28;19928;-96
2023/09/26 05:09:07;;;;;;;;;;;;;;;33.22;27.78;99065.03;5017918;28;19956;-94
2023/09/26 05:11:33;;;;;;;;;;;;;;;33.27;28.04;99066.47;5017070;28;20020;-94
2023/09/26 05:14:00;;;;;;;;;;;;;;;33.20;27.61;99070.41;5017339;28;19921;-94
2023/09/26 05:16:26;;;;;;;;;;;;;;;32.76;28.29;99074.75;5032394;28;20003;-93
2023/09/26 05:18:52;;;;;;;;;;;;;;;32.58;28.90;99072.63;5037291;28;20333;-93
2023/09/26 05:21:18;;;;;;;;;;;;;;;32.55;29.10;99081.31;5037520;28;20300;-93
2023/09/26 05:23:44;;;;;;;;;;;;;;;32.72;28.71;99077.72;5018997;28;19929;-96
2023/09/26 05:26:11;;;;;;;;;;;;;;;32.83;28.68;99082.19;5017348;28;19929;-95
2023/09/26 05:28:38;;;;;;;;;;;;;;;32.76;28.71;99083.28;5004641;28;19918;-94
2023/09/26 05:31:04;;;;;;;;;;;;;;;32.55;29.26;99078.47;5010453;28;19921;-93
2023/09/26 05:33:31;;;;;;;;;;;;;;;32.47;29.33;99085.66;5017030;28;19931;-93
2023/09/26 05:35:57;;;;;;;;;;;;;;;32.42;29.76;99083.41;5017389;28;19918;-95
2023/09/26 05:38:25;;;;;;;;;;;;;;;32.44;29.61;99093.06;5017456;28;19924;-94
2023/09/26 05:40:51;;;;;;;;;;;;;;;32.59;29.67;99088.44;5017774;28;20388;-95
2023/09/26 05:43:17;;;;;;;;;;;;;;;32.63;30.33;99097.59;5011971;28;19926;-95
2023/09/26 05:45:43;;;;;;;;;;;;;;;32.42;30.65;99094.78;5015637;28;19980;-95
2023/09/26 05:48:09;;;;;;;;;;;;;;;32.29;30.83;99099.78;5016439;28;19925;-94
2023/09/26 05:50:35;;;;;;;;;;;;;;;32.44;30.90;99095.91;5014560;28;19976;-94
2023/09/26 05:53:03;;;;;;;;;;;;;;;32.56;31.11;99088.56;5013670;28;19922;-94
2023/09/26 05:55:29;;;;;;;;;;;;;;;32.62;30.67;99092.41;5006073;28;20435;-96
2023/09/26 05:57:55;;;;;;;;;;;;;;;32.42;30.89;99103.31;5010322;28;20388;-95
2023/09/26 06:00:21;;;;;;;;;;;;;;;32.59;31.39;99099.00;5005841;28;20017;-93
2023/09/26 06:02:47;;;;;;;;;;;;;;;32.58;31.38;99088.91;5008476;28;19969;-95
2023/09/26 06:05:13;;;;;;;;;;;;;;;32.63;31.16;99088.28;5003767;28;20332;-94
2023/09/26 06:07:41;;;;;;;;;;;;;;;32.78;30.93;99092.13;5002928;28;19929;-93
2023/09/26 06:10:11;;;;;;;;;;;;;;;33.01;31.60;99091.56;5011633;28;20437;-95
2023/09/26 06:12:37;;;;;;;;;;;;;;;33.09;31.52;99101.41;5017844;28;20008;-96
2023/09/26 06:15:05;;;;;;;;;;;;;;;32.98;31.22;99098.16;5014756;28;20003;-96
2023/09/26 06:17:31;;;;;;;;;;;;;;;32.81;31.75;99094.03;5008273;28;19933;-94
2023/09/26 06:19:58;;;;;;;;;;;;;;;33.19;31.29;99096.50;5016110;28;19969;-94
2023/09/26 06:22:24;;;;;;;;;;;;;;;32.84;31.78;99089.47;5013596;28;19922;-93
2023/09/26 06:24:50;;;;;;;;;;;;;;;33.03;31.87;99091.09;5001105;28;20345;-92
2023/09/26 06:27:16;;;;;;;;;;;;;;;33.09;31.84;99092.88;5011263;28;20362;-93
2023/09/26 06:29:42;;;;;;;;;;;;;;;32.96;32.48;99099.91;4996528;28;19964;-93
2023/09/26 06:32:08;;;;;;;;;;;;;;;32.91;32.55;99095.63;5002039;28;20373;-93
2023/09/26 06:34:39;;;;;;;;;;;;;;;32.85;32.52;99091.81;5016086;28;20317;-93
2023/09/26 06:37:05;;;;;;;;;;;;;;;32.96;32.66;99092.16;5016444;28;19918;-93
2023/09/26 06:39:31;;;;;;;;;;;;;;;33.23;32.54;99092.25;5016023;28;19941;-93
2023/09/26 06:41:57;;;;;;;;;;;;;;;33.14;32.20;99091.44;5016239;28;19924;-93
2023/09/26 06:44:23;;;;;;;;;;;;;;;32.89;33.07;99091.66;5014500;28;19940;-95
2023/09/26 06:46:49;;;;;;;;;;;;;;;32.61;33.62;99091.59;5015345;28;19968;-93
2023/09/26 06:49:15;;;;;;;;;;;;;;;32.91;33.21;99094.84;5016611;28;19918;-94
2023/09/26 06:51:41;;;;;;;;;;;;;;;33.05;32.81;99094.28;5016054;28;19917;-95
2023/09/26 06:54:07;;;;;;;;;;;;;;;33.56;32.99;99091.66;5015247;28;20336;-93
2023/09/26 06:56:33;;;;;;;;;;;;;;;33.45;32.34;99083.53;5016039;28;20377;-94
2023/09/26 06:58:59;;;;;;;;;;;;;;;33.48;33.18;99087.50;5015670;28;19924;-95
2023/09/26 07:01:25;;;;;;;;;;;;;;;33.20;33.12;99093.19;5015804;28;19917;-93
2023/09/26 07:03:51;;;;;;;;;;;;;;;33.64;33.12;99093.69;5015475;28;19918;-93
2023/09/26 07:06:17;;;;;;;;;;;;;;;34.10;32.41;99097.28;5016192;28;20289;-93
2023/09/26 07:08:44;;;;;;;;;;;;;;;33.73;32.79;99107.13;5015459;28;19925;-93
2023/09/26 07:11:10;;;;;;;;;;;;;;;33.99;32.42;99094.91;5015512;28;19976;-93
2023/09/26 07:13:36;;;;;;;;;;;;;;;33.75;32.18;99094.00;5015269;28;19925;-93
2023/09/26 07:16:03;;;;;;;;;;;;;;;33.70;31.88;99099.56;5015588;28;19918;-93
2023/09/26 07:18:33;;;;;;;;;;;;;;;33.57;32.00;99102.56;5015250;28;19925;-93
2023/09/26 07:21:00;;;;;;;;;;;;;;;33.44;33.14;99107.59;5015518;28;20282;-93
2023/09/26 07:23:26;;;;;;;;;;;;;;;33.59;32.74;99093.53;5010143;28;20365;-94
2023/09/26 07:25:52;;;;;;;;;;;;;;;33.23;34.13;99097.94;5015394;28;20004;-93
2023/09/26 07:28:19;;;;;;;;;;;;;;;33.52;33.02;99102.38;5014916;28;19922;-94
2023/09/26 07:30:45;;;;;;;;;;;;;;;33.90;32.35;99103.50;5014981;28;20000;-94
2023/09/26 07:33:11;;;;;;;;;;;;;;;34.06;32.42;99105.22;5015018;28;20349;-93
2023/09/26 07:35:37;;;;;;;;;;;;;;;33.97;31.39;99100.31;5015125;28;19917;-93
2023/09/26 07:38:03;;;;;;;;;;;;;;;34.58;31.50;99101.13;5014980;28;20009;-93
2023/09/26 07:40:29;;;;;;;;;;;;;;;34.11;32.18;99101.72;5022490;28;20266;-93
2023/09/26 07:42:55;;;;;;;;;;;;;;;34.14;32.77;99102.84;5029909;28;19925;-93
2023/09/26 07:45:21;;;;;;;;;;;;;;;34.63;31.24;99104.13;5014993;28;19971;-94
2023/09/26 07:47:48;;;;;;;;;;;;;;;35.02;31.32;99095.69;5015299;28;20370;-92
2023/09/26 07:50:14;;;;;;;;;;;;;;;35.43;30.81;99100.44;5015052;28;19924;-93
2023/09/26 07:52:40;;;;;;;;;;;;;;;35.77;29.68;99088.44;5014287;28;19964;-93
2023/09/26 07:55:06;;;;;;;;;;;;;;;35.86;30.17;99094.06;5015080;28;19921;-93
2023/09/26 07:57:32;;;;;;;;;;;;;;;35.90;30.23;99096.72;5005256;28;19929;-93
2023/09/26 07:59:58;;;;;;;;;;;;;;;36.13;30.23;99098.72;4995215;28;20015;-93
2023/09/26 08:02:24;;;;;;;;;;;;;;;36.29;29.23;99092.53;4995161;28;19918;-93
2023/09/26 08:04:50;;;;;;;;;;;;;;;35.71;30.83;99101.06;5012776;28;20017;-92
2023/09/26 08:07:16;;;;;;;;;;;;;;;34.90;30.33;99093.81;5012728;28;19926;-92
2023/09/26 08:09:43;;;;;;;;;;;;;;;34.90;30.91;99094.59;5009497;28;19968;-92
2023/09/26 08:12:09;;;;;;;;;;;;;;;35.01;30.72;99099.78;5014383;28;19922;-93
2023/09/26 08:14:35;;;;;;;;;;;;;;;35.23;30.45;99100.28;5015352;28;19925;-92
2023/09/26 08:17:01;;;;;;;;;;;;;;;34.64;32.34;99096.31;5014511;28;19980;-93
2023/09/26 08:19:27;;;;;;;;;;;;;;;34.06;32.93;99093.81;5008173;28;19936;-92
2023/09/26 08:21:53;;;;;;;;;;;;;;;33.91;32.93;99093.66;5008053;28;20300;-92
2023/09/26 08:24:19;;;;;;;;;;;;;;;34.29;31.72;99092.31;5008842;28;19930;-92
2023/09/26 08:26:45;;;;;;;;;;;;;;;34.20;32.87;99089.50;5014440;28;19957;-92
2023/09/26 08:29:11;;;;;;;;;;;;;;;33.65;33.43;99100.19;5014246;28;20389;-92
2023/09/26 08:31:37;;;;;;;;;;;;;;;34.37;32.07;99094.38;5014564;28;20008;-92
2023/09/26 08:34:03;;;;;;;;;;;;;;;33.92;32.96;99094.44;5013610;28;19986;-92
2023/09/26 08:36:30;;;;;;;;;;;;;;;34.04;33.24;99088.59;5013697;28;19921;-92
2023/09/26 08:38:56;;;;;;;;;;;;;;;33.98;32.50;99084.78;5014377;28;19918;-92
2023/09/26 08:41:26;;;;;;;;;;;;;;;34.23;32.52;99088.53;5014106;28;20329;-92
2023/09/26 08:43:52;;;;;;;;;;;;;;;34.48;33.26;99088.13;5014039;28;19923;-92
2023/09/26 08:46:19;;;;;;;;;;;;;;;34.17;32.95;99088.41;5013650;28;19921;-91
2023/09/26 08:48:45;;;;;;;;;;;;;;;34.06;33.23;99086.06;5014521;28;19948;-91
2023/09/26 08:51:11;;;;;;;;;;;;;;;34.66;31.51;99085.22;5013754;28;20365;-92
2023/09/26 08:53:37;;;;;;;;;;;;;;;34.85;31.46;99089.56;5013280;28;19921;-92
2023/09/26 08:56:04;;;;;;;;;;;;;;;35.78;30.87;99078.56;5013050;28;19921;-93
2023/09/26 08:58:31;;;;;;;;;;;;;;;36.04;30.73;99084.53;5013962;28;20008;-92
2023/09/26 09:00:57;;;;;;;;;;;;;;;36.38;29.75;99083.84;5013905;28;19939;-92
2023/09/26 09:03:23;;;;;;;;;;;;;;;36.38;29.69;99083.03;5013965;28;20409;-92
2023/09/26 09:05:49;;;;;;;;;;;;;;;34.03;33.61;99081.31;5013611;28;19928;-92
2023/09/26 09:08:19;;;;;;;;;;;;;;;33.89;32.60;99081.16;5014056;28;19921;-91
2023/09/26 09:10:52;;;;;;;;;;;;;;;33.86;33.11;99076.41;5012256;28;19922;-92
2023/09/26 09:13:27;;;;;;;;;;;;;;;34.95;31.38;99078.88;4994080;28;19922;-91
2023/09/26 09:16:11;;;;;;;;;;;;;;;35.77;31.30;99070.50;4997077;28;20266;-91
2023/09/26 09:18:38;;;;;;;;;;;;;;;36.30;30.86;99070.41;5010244;28;20012;-92
2023/09/26 09:21:22;;;;;;;;;;;;;;;36.64;30.67;99070.47;5013725;28;19965;-91
2023/09/26 09:23:50;;;;;;;;;;;;;;;36.63;30.29;99071.78;5014437;28;19924;-92
2023/09/26 09:26:17;;;;;;;;;;;;;;;36.58;30.68;99068.81;5013446;28;20328;-92
2023/09/26 09:28:43;;;;;;;;;;;;;;;36.97;30.68;99057.97;5013905;28;19945;-92
2023/09/26 09:31:11;;;;;;;;;;;;;;;37.09;29.82;99054.75;5013619;28;19952;-93
2023/09/26 09:33:37;;;;;;;;;;;;;;;36.30;30.66;99058.97;5013375;28;19963;-92
2023/09/26 09:36:03;;;;;;;;;;;;;;;36.28;30.60;99056.63;5013088;28;19926;-91
2023/09/26 09:38:33;;;;;;;;;;;;;;;36.22;31.31;99050.03;5012220;28;19963;-92
2023/09/26 09:40:59;;;;;;;;;;;;;;;36.64;30.90;99053.28;5032959;28;20004;-93
2023/09/26 09:43:25;;;;;;;;;;;;;;;35.91;31.30;99059.06;5033385;28;20385;-91
2023/09/26 09:45:53;;;;;;;;;;;;;;;35.57;32.60;99056.88;5030903;28;19921;-92
2023/09/26 09:48:22;;;;;;;;;;;;;;;35.83;32.59;99049.31;5013014;28;20393;-92
2023/09/26 09:50:49;;;;;;;;;;;;;;;35.30;32.56;99045.66;5014345;28;19944;-92
2023/09/26 09:53:18;;;;;;;;;;;;;;;35.04;33.02;99047.44;5017301;28;19922;-92
2023/09/26 09:55:48;;;;;;;;;;;;;;;35.13;33.63;99047.38;5017417;28;19924;-91
2023/09/26 09:58:15;;;;;;;;;;;;;;;35.83;31.31;99045.66;5015758;28;19993;-91
2023/09/26 10:00:41;;;;;;;;;;;;;;;36.21;31.33;99047.63;5016923;28;19917;-92
2023/09/26 10:03:08;;;;;;;;;;;;;;;36.11;31.29;99044.09;5016670;28;19917;-93
2023/09/26 10:05:37;;;;;;;;;;;;;;;35.22;32.04;99045.22;5016969;28;20293;-92
2023/09/26 10:08:04;;;;;;;;;;;;;;;35.18;32.23;99041.00;5016296;28;19928;-92
2023/09/26 10:10:31;;;;;;;;;;;;;;;34.94;32.50;99040.22;5009048;28;20338;-92
2023/09/26 10:12:58;;;;;;;;;;;;;;;34.86;33.57;99039.78;5003741;28;19944;-92
2023/09/26 10:15:24;;;;;;;;;;;;;;;35.23;33.70;99037.47;5036529;28;19918;-91
2023/09/26 10:17:50;;;;;;;;;;;;;;;35.32;32.31;99031.66;5018011;28;19932;-91
2023/09/26 10:20:16;;;;;;;;;;;;;;;35.66;32.64;99030.28;5016817;28;20290;-92
2023/09/26 10:22:43;;;;;;;;;;;;;;;35.69;34.01;99035.78;5016659;28;19965;-92
2023/09/26 10:25:19;;;;;;;;;;;;;;;35.85;34.25;99032.44;5016410;28;20364;-91
2023/09/26 10:27:47;;;;;;;;;;;;;;;36.13;32.43;99035.03;5016513;28;19928;-92
2023/09/26 10:30:14;;;;;;;;;;;;;;;36.32;32.25;99036.38;5017230;28;19913;-90
2023/09/26 10:32:44;;;;;;;;;;;;;;;35.94;32.19;99034.44;5015394;28;19941;-91
2023/09/26 10:35:12;;;;;;;;;;;;;;;36.38;32.70;99025.81;5016463;28;20365;-90
2023/09/26 10:37:40;;;;;;;;;;;;;;;36.36;32.18;99028.41;5016253;28;20393;-92
2023/09/26 10:40:10;;;;;;;;;;;;;;;35.82;33.16;99027.75;5016356;28;19917;-91
2023/09/26 10:42:39;;;;;;;;;;;;;;;35.47;34.48;99028.84;5015964;28;19975;-91
2023/09/26 10:45:06;;;;;;;;;;;;;;;35.62;33.89;99021.09;5014899;28;19968;-91
2023/09/26 10:47:36;;;;;;;;;;;;;;;36.63;32.22;99023.13;5016423;28;20020;-91
2023/09/26 10:50:03;;;;;;;;;;;;;;;36.69;33.46;99020.31;5016372;28;19917;-92
2023/09/26 10:52:29;;;;;;;;;;;;;;;36.68;32.01;99021.63;5015633;28;19989;-91
2023/09/26 10:54:55;;;;;;;;;;;;;;;36.37;32.09;99021.38;5016018;28;19924;-92
2023/09/26 10:57:22;;;;;;;;;;;;;;;35.87;32.40;99029.13;5015851;28;20330;-91
2023/09/26 10:59:51;;;;;;;;;;;;;;;36.45;31.73;99028.31;5015895;28;20004;-92
2023/09/26 11:02:17;;;;;;;;;;;;;;;37.02;31.78;99017.94;5014131;28;20007;-92
2023/09/26 11:04:43;;;;;;;;;;;;;;;37.14;31.45;99019.66;5016283;28;19917;-92
2023/09/26 11:07:09;;;;;;;;;;;;;;;37.03;31.28;99013.78;5015710;28;19955;-91
2023/09/26 11:09:42;;;;;;;;;;;;;;;37.01;30.85;99015.59;5004243;28;19921;-91
2023/09/26 11:12:08;;;;;;;;;;;;;;;36.45;31.28;99020.53;4997948;28;20394;-90
2023/09/26 11:14:35;;;;;;;;;;;;;;;36.59;31.30;99021.75;5015349;28;19917;-90
2023/09/26 11:17:01;;;;;;;;;;;;;;;36.20;31.25;99018.25;5015166;28;20424;-91
2023/09/26 11:19:27;;;;;;;;;;;;;;;36.56;32.07;99011.28;5015415;28;19918;-91
2023/09/26 11:21:56;;;;;;;;;;;;;;;36.01;32.80;99017.69;5016085;28;20004;-91
2023/09/26 11:24:27;;;;;;;;;;;;;;;36.23;32.39;99010.75;5015238;28;19925;-91
2023/09/26 11:27:01;;;;;;;;;;;;;;;36.93;31.29;99003.75;5015420;28;19924;-91
2023/09/26 11:29:30;;;;;;;;;;;;;;;37.36;30.06;99001.94;5013921;28;21394;-91
2023/09/26 11:31:56;;;;;;;;;;;;;;;36.77;30.85;99001.44;5013938;28;19929;-93
2023/09/26 11:34:23;;;;;;;;;;;;;;;36.57;30.54;99002.19;5014562;28;19925;-91
2023/09/26 11:36:49;;;;;;;;;;;;;;;36.34;31.55;99008.09;5014507;28;19922;-91
2023/09/26 11:39:19;;;;;;;;;;;;;;;36.18;31.83;99003.66;5028885;28;20381;-90
2023/09/26 11:41:46;;;;;;;;;;;;;;;36.62;31.86;99001.50;5034977;28;20003;-91
2023/09/26 11:44:13;;;;;;;;;;;;;;;36.14;32.14;99010.88;5034570;28;19923;-91
2023/09/26 11:46:44;;;;;;;;;;;;;;;36.25;32.38;99006.13;5025768;28;19921;-91
2023/09/26 11:49:11;;;;;;;;;;;;;;;36.32;31.93;99002.06;5014907;28;19926;-91
2023/09/26 11:51:37;;;;;;;;;;;;;;;35.41;33.35;98997.31;5015033;28;19921;-92
2023/09/26 11:54:03;;;;;;;;;;;;;;;35.97;32.50;98991.38;5014816;28;20384;-90
2023/09/26 11:56:29;;;;;;;;;;;;;;;36.65;30.91;98989.06;5023703;28;19926;-91
2023/09/26 11:58:55;;;;;;;;;;;;;;;37.03;31.02;98990.88;5014866;28;19918;-91
2023/09/26 12:01:21;;;;;;;;;;;;;;;37.05;30.82;98991.16;5014818;28;20000;-91
2023/09/26 12:03:47;;;;;;;;;;;;;;;36.58;30.97;98986.63;5014848;28;19920;-91
2023/09/26 12:06:13;;;;;;;;;;;;;;;34.92;34.98;98986.44;5014112;28;19921;-91
2023/09/26 12:08:40;;;;;;;;;;;;;;;35.86;33.22;98987.50;5014181;28;19940;-91
2023/09/26 12:11:06;;;;;;;;;;;;;;;36.18;32.28;98982.84;5013330;28;19928;-91
2023/09/26 12:13:32;;;;;;;;;;;;;;;36.33;31.85;98977.88;5013876;28;19921;-91
2023/09/26 12:15:58;;;;;;;;;;;;;;;35.51;34.59;98978.03;5013938;28;19999;-90
2023/09/26 12:18:24;;;;;;;;;;;;;;;34.05;38.05;98972.53;5014091;28;19922;-92
2023/09/26 12:20:55;;;;;;;;;;;;;;;35.05;35.01;98981.31;5013060;28;20435;-91
2023/09/26 12:23:21;;;;;;;;;;;;;;;36.37;32.34;98959.22;5014107;28;19921;-92
2023/09/26 12:25:49;;;;;;;;;;;;;;;35.01;34.68;98968.47;5014369;28;20433;-91
2023/09/26 12:28:18;;;;;;;;;;;;;;;33.89;38.92;98970.00;5014228;28;20385;-92
2023/09/26 12:30:44;;;;;;;;;;;;;;;33.14;38.92;98966.22;5012692;28;19928;-91
2023/09/26 12:33:11;;;;;;;;;;;;;;;33.65;36.55;98972.81;5013085;28;20012;-92
2023/09/26 12:35:36;;;;;;;;;;;;;;;33.98;35.74;98967.16;5014437;28;19924;-90
2023/09/26 12:38:03;;;;;;;;;;;;;;;33.77;36.32;98966.09;5014380;28;19917;-92
2023/09/26 12:40:29;;;;;;;;;;;;;;;34.32;34.25;98963.84;5013958;28;19925;-91
2023/09/26 12:42:55;;;;;;;;;;;;;;;35.22;32.59;98965.28;5013383;28;19925;-91
2023/09/26 12:45:21;;;;;;;;;;;;;;;34.56;33.67;98975.31;5014128;28;20316;-91